sensor_id;sensor_type;location;lat;lon;timestamp;P1;durP1;ratioP1;P2;durP2;ratioP2
40953;SDS011;26686;50.130;8.710;2022-08-19T00:01:57;12.50;;;11.40;;
40953;SDS011;26686;50.130;8.710;2022-08-19T00:06:59;12.30;;;11.20;;
40953;SDS011;26686;50.130;8.710;2022-08-19T00:12:01;13.38;;;12.13;;
40953;SDS011;26686;50.130;8.710;2022-08-19T00:17:04;13.38;;;12.20;;
40953;SDS011;26686;50.130;8.710;2022-08-19T00:22:07;13.23;;;11.82;;
40953;SDS011;26686;50.130;8.710;2022-08-19T00:27:09;12.85;;;11.55;;
40953;SDS011;26686;50.130;8.710;2022-08-19T00:32:26;13.32;;;12.07;;
40953;SDS011;26686;50.130;8.710;2022-08-19T00:37:29;13.43;;;12.23;;
40953;SDS011;26686;50.130;8.710;2022-08-19T00:42:31;13.13;;;11.93;;
40953;SDS011;26686;50.130;8.710;2022-08-19T00:47:32;14.60;;;13.20;;
40953;SDS011;26686;50.130;8.710;2022-08-19T00:52:36;13.73;;;12.30;;
40953;SDS011;26686;50.130;8.710;2022-08-19T00:57:53;13.25;;;11.98;;
40953;SDS011;26686;50.130;8.710;2022-08-19T01:02:57;14.00;;;12.60;;
40953;SDS011;26686;50.130;8.710;2022-08-19T01:07:59;13.55;;;12.27;;
40953;SDS011;26686;50.130;8.710;2022-08-19T01:13:03;13.30;;;12.00;;
40953;SDS011;26686;50.130;8.710;2022-08-19T01:18:07;12.70;;;11.47;;
40953;SDS011;26686;50.130;8.710;2022-08-19T01:23:10;11.95;;;10.85;;
40953;SDS011;26686;50.130;8.710;2022-08-19T01:28:21;12.75;;;11.45;;
40953;SDS011;26686;50.130;8.710;2022-08-19T01:33:34;11.95;;;10.95;;
40953;SDS011;26686;50.130;8.710;2022-08-19T01:38:37;11.45;;;10.35;;
40953;SDS011;26686;50.130;8.710;2022-08-19T01:43:44;12.23;;;11.13;;
40953;SDS011;26686;50.130;8.710;2022-08-19T01:49:06;12.38;;;11.25;;
40953;SDS011;26686;50.130;8.710;2022-08-19T01:54:09;11.18;;;10.07;;
40953;SDS011;26686;50.130;8.710;2022-08-19T01:59:13;11.90;;;10.80;;
40953;SDS011;26686;50.130;8.710;2022-08-19T02:04:17;10.93;;;9.95;;
40953;SDS011;26686;50.130;8.710;2022-08-19T02:09:19;11.32;;;10.32;;
40953;SDS011;26686;50.130;8.710;2022-08-19T02:14:20;11.20;;;10.25;;
40953;SDS011;26686;50.130;8.710;2022-08-19T02:19:22;10.90;;;9.80;;
40953;SDS011;26686;50.130;8.710;2022-08-19T02:24:23;10.88;;;9.98;;
40953;SDS011;26686;50.130;8.710;2022-08-19T02:29:24;10.93;;;9.95;;
40953;SDS011;26686;50.130;8.710;2022-08-19T02:34:26;10.23;;;9.25;;
40953;SDS011;26686;50.130;8.710;2022-08-19T02:39:27;10.73;;;9.73;;
40953;SDS011;26686;50.130;8.710;2022-08-19T02:44:28;11.57;;;10.05;;
40953;SDS011;26686;50.130;8.710;2022-08-19T02:54:35;9.60;;;8.70;;
40953;SDS011;26686;50.130;8.710;2022-08-19T02:59:36;10.30;;;9.23;;
40953;SDS011;26686;50.130;8.710;2022-08-19T03:04:38;9.38;;;8.27;;
40953;SDS011;26686;50.130;8.710;2022-08-19T03:09:39;10.68;;;9.02;;
40953;SDS011;26686;50.130;8.710;2022-08-19T03:14:40;10.35;;;9.35;;
40953;SDS011;26686;50.130;8.710;2022-08-19T03:19:42;10.15;;;8.45;;
40953;SDS011;26686;50.130;8.710;2022-08-19T03:24:44;9.32;;;8.43;;
40953;SDS011;26686;50.130;8.710;2022-08-19T03:29:45;10.05;;;8.88;;
40953;SDS011;26686;50.130;8.710;2022-08-19T03:34:47;9.98;;;8.90;;
40953;SDS011;26686;50.130;8.710;2022-08-19T03:39:48;9.63;;;8.40;;
40953;SDS011;26686;50.130;8.710;2022-08-19T03:44:49;9.73;;;8.88;;
40953;SDS011;26686;50.130;8.710;2022-08-19T03:49:51;10.15;;;9.15;;
40953;SDS011;26686;50.130;8.710;2022-08-19T03:54:52;10.98;;;8.98;;
40953;SDS011;26686;50.130;8.710;2022-08-19T03:59:54;8.98;;;8.07;;
40953;SDS011;26686;50.130;8.710;2022-08-19T04:05:04;10.10;;;9.10;;
40953;SDS011;26686;50.130;8.710;2022-08-19T04:10:06;13.98;;;9.77;;
40953;SDS011;26686;50.130;8.710;2022-08-19T04:15:10;9.68;;;8.68;;
40953;SDS011;26686;50.130;8.710;2022-08-19T04:20:12;9.73;;;8.82;;
40953;SDS011;26686;50.130;8.710;2022-08-19T04:25:13;9.60;;;8.65;;
40953;SDS011;26686;50.130;8.710;2022-08-19T04:30:14;9.25;;;8.45;;
40953;SDS011;26686;50.130;8.710;2022-08-19T04:35:16;11.32;;;8.75;;
40953;SDS011;26686;50.130;8.710;2022-08-19T04:40:22;10.20;;;9.25;;
40953;SDS011;26686;50.130;8.710;2022-08-19T04:45:45;9.80;;;9.00;;
40953;SDS011;26686;50.130;8.710;2022-08-19T04:50:47;9.48;;;8.57;;
40953;SDS011;26686;50.130;8.710;2022-08-19T04:55:49;9.60;;;8.60;;
40953;SDS011;26686;50.130;8.710;2022-08-19T05:00:50;10.00;;;9.05;;
40953;SDS011;26686;50.130;8.710;2022-08-19T05:05:52;9.43;;;8.50;;
40953;SDS011;26686;50.130;8.710;2022-08-19T05:10:53;9.88;;;8.88;;
40953;SDS011;26686;50.130;8.710;2022-08-19T05:15:56;8.80;;;8.10;;
40953;SDS011;26686;50.130;8.710;2022-08-19T05:21:01;9.75;;;8.68;;
40953;SDS011;26686;50.130;8.710;2022-08-19T05:26:28;9.73;;;8.73;;
40953;SDS011;26686;50.130;8.710;2022-08-19T05:31:30;9.70;;;8.75;;
40953;SDS011;26686;50.130;8.710;2022-08-19T05:36:39;9.57;;;8.57;;
40953;SDS011;26686;50.130;8.710;2022-08-19T05:41:45;8.70;;;8.00;;
40953;SDS011;26686;50.130;8.710;2022-08-19T05:46:48;10.30;;;8.27;;
40953;SDS011;26686;50.130;8.710;2022-08-19T05:51:49;9.00;;;8.20;;
40953;SDS011;26686;50.130;8.710;2022-08-19T05:56:51;9.20;;;8.40;;
40953;SDS011;26686;50.130;8.710;2022-08-19T06:01:54;9.17;;;8.27;;
40953;SDS011;26686;50.130;8.710;2022-08-19T06:06:56;10.95;;;8.43;;
40953;SDS011;26686;50.130;8.710;2022-08-19T06:11:57;8.50;;;7.80;;
40953;SDS011;26686;50.130;8.710;2022-08-19T06:22:07;9.65;;;7.97;;
40953;SDS011;26686;50.130;8.710;2022-08-19T06:27:09;7.72;;;6.95;;
40953;SDS011;26686;50.130;8.710;2022-08-19T06:32:10;8.80;;;7.43;;
40953;SDS011;26686;50.130;8.710;2022-08-19T06:37:12;7.38;;;6.78;;
40953;SDS011;26686;50.130;8.710;2022-08-19T06:42:13;8.20;;;6.93;;
40953;SDS011;26686;50.130;8.710;2022-08-19T06:47:18;10.45;;;6.70;;
40953;SDS011;26686;50.130;8.710;2022-08-19T06:52:24;12.52;;;7.03;;
40953;SDS011;26686;50.130;8.710;2022-08-19T06:57:25;9.23;;;6.82;;
40953;SDS011;26686;50.130;8.710;2022-08-19T07:02:27;8.65;;;6.20;;
40953;SDS011;26686;50.130;8.710;2022-08-19T07:07:29;7.82;;;6.97;;
40953;SDS011;26686;50.130;8.710;2022-08-19T07:12:32;6.40;;;5.67;;
40953;SDS011;26686;50.130;8.710;2022-08-19T07:17:36;6.57;;;5.88;;
40953;SDS011;26686;50.130;8.710;2022-08-19T07:22:42;5.78;;;5.28;;
40953;SDS011;26686;50.130;8.710;2022-08-19T07:27:43;6.22;;;5.32;;
40953;SDS011;26686;50.130;8.710;2022-08-19T07:32:46;6.10;;;5.57;;
40953;SDS011;26686;50.130;8.710;2022-08-19T07:37:50;5.50;;;5.00;;
40953;SDS011;26686;50.130;8.710;2022-08-19T07:42:54;6.28;;;4.20;;
40953;SDS011;26686;50.130;8.710;2022-08-19T07:47:55;4.65;;;4.20;;
40953;SDS011;26686;50.130;8.710;2022-08-19T07:52:57;4.47;;;4.07;;
40953;SDS011;26686;50.130;8.710;2022-08-19T07:57:58;4.30;;;3.95;;
40953;SDS011;26686;50.130;8.710;2022-08-19T08:02:59;4.53;;;4.13;;
40953;SDS011;26686;50.130;8.710;2022-08-19T08:08:01;4.65;;;4.00;;
40953;SDS011;26686;50.130;8.710;2022-08-19T08:13:27;4.65;;;3.47;;
40953;SDS011;26686;50.130;8.710;2022-08-19T08:18:29;3.75;;;3.33;;
40953;SDS011;26686;50.130;8.710;2022-08-19T08:23:31;3.88;;;3.40;;
40953;SDS011;26686;50.130;8.710;2022-08-19T08:28:32;4.13;;;3.72;;
40953;SDS011;26686;50.130;8.710;2022-08-19T08:33:34;3.38;;;3.08;;
40953;SDS011;26686;50.130;8.710;2022-08-19T08:38:36;3.97;;;2.80;;
40953;SDS011;26686;50.130;8.710;2022-08-19T08:43:40;2.95;;;2.50;;
40953;SDS011;26686;50.130;8.710;2022-08-19T08:48:49;4.00;;;3.08;;
40953;SDS011;26686;50.130;8.710;2022-08-19T08:54:10;5.15;;;3.50;;
40953;SDS011;26686;50.130;8.710;2022-08-19T08:59:24;3.47;;;2.70;;
40953;SDS011;26686;50.130;8.710;2022-08-19T09:04:34;3.40;;;3.13;;
40953;SDS011;26686;50.130;8.710;2022-08-19T09:09:40;3.42;;;2.67;;
40953;SDS011;26686;50.130;8.710;2022-08-19T09:25:11;4.57;;;3.38;;
40953;SDS011;26686;50.130;8.710;2022-08-19T09:30:20;3.78;;;3.20;;
40953;SDS011;26686;50.130;8.710;2022-08-19T09:35:25;4.55;;;2.80;;
40953;SDS011;26686;50.130;8.710;2022-08-19T09:40:50;4.85;;;3.40;;
40953;SDS011;26686;50.130;8.710;2022-08-19T09:45:52;4.53;;;4.13;;
40953;SDS011;26686;50.130;8.710;2022-08-19T09:50:53;5.23;;;4.43;;
40953;SDS011;26686;50.130;8.710;2022-08-19T09:55:55;4.32;;;4.00;;
40953;SDS011;26686;50.130;8.710;2022-08-19T10:00:57;6.27;;;4.53;;
40953;SDS011;26686;50.130;8.710;2022-08-19T10:06:01;5.10;;;4.50;;
40953;SDS011;26686;50.130;8.710;2022-08-19T10:11:04;4.78;;;4.35;;
40953;SDS011;26686;50.130;8.710;2022-08-19T10:16:26;5.67;;;4.73;;
40953;SDS011;26686;50.130;8.710;2022-08-19T10:21:31;4.97;;;4.40;;
40953;SDS011;26686;50.130;8.710;2022-08-19T10:26:35;4.75;;;4.35;;
40953;SDS011;26686;50.130;8.710;2022-08-19T10:31:38;5.30;;;4.65;;
40953;SDS011;26686;50.130;8.710;2022-08-19T10:37:00;6.53;;;4.13;;
40953;SDS011;26686;50.130;8.710;2022-08-19T10:42:05;4.68;;;3.92;;
40953;SDS011;26686;50.130;8.710;2022-08-19T10:47:10;5.22;;;4.78;;
40953;SDS011;26686;50.130;8.710;2022-08-19T10:52:25;6.38;;;5.78;;
40953;SDS011;26686;50.130;8.710;2022-08-19T10:57:39;6.28;;;5.78;;
40953;SDS011;26686;50.130;8.710;2022-08-19T11:03:03;6.28;;;5.53;;
40953;SDS011;26686;50.130;8.710;2022-08-19T11:08:05;6.50;;;5.90;;
40953;SDS011;26686;50.130;8.710;2022-08-19T11:13:24;6.40;;;5.90;;
40953;SDS011;26686;50.130;8.710;2022-08-19T11:18:26;6.80;;;6.20;;
40953;SDS011;26686;50.130;8.710;2022-08-19T11:23:28;5.60;;;5.10;;
40953;SDS011;26686;50.130;8.710;2022-08-19T11:28:32;5.93;;;5.53;;
40953;SDS011;26686;50.130;8.710;2022-08-19T11:33:34;6.15;;;5.60;;
40953;SDS011;26686;50.130;8.710;2022-08-19T11:38:35;6.65;;;6.05;;
40953;SDS011;26686;50.130;8.710;2022-08-19T11:43:37;6.43;;;5.82;;
40953;SDS011;26686;50.130;8.710;2022-08-19T11:48:43;6.32;;;5.63;;
40953;SDS011;26686;50.130;8.710;2022-08-19T11:53:45;6.22;;;5.63;;
40953;SDS011;26686;50.130;8.710;2022-08-19T11:58:54;6.15;;;5.55;;
40953;SDS011;26686;50.130;8.710;2022-08-19T12:03:57;6.65;;;6.15;;
40953;SDS011;26686;50.130;8.710;2022-08-19T12:09:00;6.45;;;5.95;;
40953;SDS011;26686;50.130;8.710;2022-08-19T12:14:05;7.07;;;6.45;;
40953;SDS011;26686;50.130;8.710;2022-08-19T12:19:07;5.20;;;4.70;;
40953;SDS011;26686;50.130;8.710;2022-08-19T12:24:08;7.07;;;6.25;;
40953;SDS011;26686;50.130;8.710;2022-08-19T12:29:10;6.70;;;6.00;;
40953;SDS011;26686;50.130;8.710;2022-08-19T12:34:19;7.57;;;6.93;;
40953;SDS011;26686;50.130;8.710;2022-08-19T12:39:23;7.18;;;6.57;;
40953;SDS011;26686;50.130;8.710;2022-08-19T12:44:25;6.55;;;6.15;;
40953;SDS011;26686;50.130;8.710;2022-08-19T12:49:30;6.63;;;6.20;;
40953;SDS011;26686;50.130;8.710;2022-08-19T12:54:53;6.10;;;5.60;;
40953;SDS011;26686;50.130;8.710;2022-08-19T12:59:56;6.72;;;6.10;;
40953;SDS011;26686;50.130;8.710;2022-08-19T13:04:58;6.72;;;6.22;;
40953;SDS011;26686;50.130;8.710;2022-08-19T13:15:01;6.60;;;6.05;;
40953;SDS011;26686;50.130;8.710;2022-08-19T13:30:08;5.63;;;4.70;;
40953;SDS011;26686;50.130;8.710;2022-08-19T13:35:30;5.40;;;5.00;;
40953;SDS011;26686;50.130;8.710;2022-08-19T13:40:32;5.55;;;5.15;;
40953;SDS011;26686;50.130;8.710;2022-08-19T13:45:39;5.05;;;4.55;;
40953;SDS011;26686;50.130;8.710;2022-08-19T13:50:42;5.15;;;4.30;;
40953;SDS011;26686;50.130;8.710;2022-08-19T13:55:45;5.75;;;4.47;;
40953;SDS011;26686;50.130;8.710;2022-08-19T14:00:47;5.32;;;4.45;;
40953;SDS011;26686;50.130;8.710;2022-08-19T14:05:49;6.00;;;4.38;;
40953;SDS011;26686;50.130;8.710;2022-08-19T14:10:51;5.13;;;4.22;;
40953;SDS011;26686;50.130;8.710;2022-08-19T14:15:52;4.40;;;4.00;;
40953;SDS011;26686;50.130;8.710;2022-08-19T14:20:54;4.47;;;3.90;;
40953;SDS011;26686;50.130;8.710;2022-08-19T14:26:03;4.15;;;3.40;;
40953;SDS011;26686;50.130;8.710;2022-08-19T14:31:05;2.92;;;2.72;;
40953;SDS011;26686;50.130;8.710;2022-08-19T14:36:07;3.50;;;3.20;;
40953;SDS011;26686;50.130;8.710;2022-08-19T14:41:09;3.20;;;2.90;;
40953;SDS011;26686;50.130;8.710;2022-08-19T14:46:14;3.58;;;3.10;;
40953;SDS011;26686;50.130;8.710;2022-08-19T14:51:17;3.10;;;2.90;;
40953;SDS011;26686;50.130;8.710;2022-08-19T14:56:21;3.10;;;2.80;;
40953;SDS011;26686;50.130;8.710;2022-08-19T15:01:25;3.03;;;2.83;;
40953;SDS011;26686;50.130;8.710;2022-08-19T15:11:29;3.03;;;2.83;;
40953;SDS011;26686;50.130;8.710;2022-08-19T15:16:33;3.15;;;2.85;;
40953;SDS011;26686;50.130;8.710;2022-08-19T15:21:34;3.43;;;2.80;;
40953;SDS011;26686;50.130;8.710;2022-08-19T15:26:37;4.13;;;3.40;;
40953;SDS011;26686;50.130;8.710;2022-08-19T15:31:38;3.00;;;2.80;;
40953;SDS011;26686;50.130;8.710;2022-08-19T15:36:41;3.17;;;2.92;;
40953;SDS011;26686;50.130;8.710;2022-08-19T15:41:42;3.10;;;2.87;;
40953;SDS011;26686;50.130;8.710;2022-08-19T15:46:45;4.10;;;3.03;;
40953;SDS011;26686;50.130;8.710;2022-08-19T15:51:48;3.65;;;3.35;;
40953;SDS011;26686;50.130;8.710;2022-08-19T15:56:52;3.75;;;3.42;;
40953;SDS011;26686;50.130;8.710;2022-08-19T16:02:12;3.30;;;2.80;;
40953;SDS011;26686;50.130;8.710;2022-08-19T16:07:32;3.30;;;3.00;;
40953;SDS011;26686;50.130;8.710;2022-08-19T16:12:34;2.77;;;2.57;;
40953;SDS011;26686;50.130;8.710;2022-08-19T16:17:35;3.33;;;3.03;;
40953;SDS011;26686;50.130;8.710;2022-08-19T16:22:37;2.60;;;2.40;;
40953;SDS011;26686;50.130;8.710;2022-08-19T16:27:40;2.72;;;2.53;;
40953;SDS011;26686;50.130;8.710;2022-08-19T16:33:01;3.63;;;3.33;;
40953;SDS011;26686;50.130;8.710;2022-08-19T16:38:03;4.07;;;2.83;;
40953;SDS011;26686;50.130;8.710;2022-08-19T16:43:04;3.00;;;2.80;;
40953;SDS011;26686;50.130;8.710;2022-08-19T16:48:08;3.85;;;3.53;;
40953;SDS011;26686;50.130;8.710;2022-08-19T16:53:11;4.20;;;3.33;;
40953;SDS011;26686;50.130;8.710;2022-08-19T17:03:15;3.40;;;3.20;;
40953;SDS011;26686;50.130;8.710;2022-08-19T17:08:18;3.58;;;3.28;;
40953;SDS011;26686;50.130;8.710;2022-08-19T17:13:25;5.47;;;3.58;;
40953;SDS011;26686;50.130;8.710;2022-08-19T17:18:29;3.80;;;3.50;;
40953;SDS011;26686;50.130;8.710;2022-08-19T17:23:32;4.07;;;3.78;;
40953;SDS011;26686;50.130;8.710;2022-08-19T17:28:45;3.75;;;3.45;;
40953;SDS011;26686;50.130;8.710;2022-08-19T17:33:50;3.78;;;3.55;;
40953;SDS011;26686;50.130;8.710;2022-08-19T17:38:55;4.35;;;3.85;;
40953;SDS011;26686;50.130;8.710;2022-08-19T17:43:59;3.63;;;3.33;;
40953;SDS011;26686;50.130;8.710;2022-08-19T17:54:02;4.97;;;3.88;;
40953;SDS011;26686;50.130;8.710;2022-08-19T17:59:06;3.60;;;3.30;;
40953;SDS011;26686;50.130;8.710;2022-08-19T18:04:14;4.78;;;4.28;;
40953;SDS011;26686;50.130;8.710;2022-08-19T18:09:17;5.97;;;4.68;;
40953;SDS011;26686;50.130;8.710;2022-08-19T18:14:21;5.25;;;4.75;;
40953;SDS011;26686;50.130;8.710;2022-08-19T18:19:34;6.38;;;4.97;;
40953;SDS011;26686;50.130;8.710;2022-08-19T18:24:42;5.45;;;4.90;;
40953;SDS011;26686;50.130;8.710;2022-08-19T18:29:46;5.35;;;4.82;;
40953;SDS011;26686;50.130;8.710;2022-08-19T18:34:48;5.03;;;4.30;;
40953;SDS011;26686;50.130;8.710;2022-08-19T18:39:49;5.75;;;5.18;;
40953;SDS011;26686;50.130;8.710;2022-08-19T18:45:10;5.60;;;5.10;;
40953;SDS011;26686;50.130;8.710;2022-08-19T18:50:30;5.57;;;5.18;;
40953;SDS011;26686;50.130;8.710;2022-08-19T18:55:32;5.43;;;4.93;;
40953;SDS011;26686;50.130;8.710;2022-08-19T19:00:34;6.60;;;5.30;;
40953;SDS011;26686;50.130;8.710;2022-08-19T19:05:36;5.32;;;4.93;;
40953;SDS011;26686;50.130;8.710;2022-08-19T19:10:39;5.78;;;5.25;;
40953;SDS011;26686;50.130;8.710;2022-08-19T19:15:42;5.40;;;4.85;;
40953;SDS011;26686;50.130;8.710;2022-08-19T19:20:44;5.88;;;5.45;;
40953;SDS011;26686;50.130;8.710;2022-08-19T19:25:45;5.97;;;5.40;;
40953;SDS011;26686;50.130;8.710;2022-08-19T19:30:51;5.70;;;5.20;;
40953;SDS011;26686;50.130;8.710;2022-08-19T19:35:53;5.95;;;4.80;;
40953;SDS011;26686;50.130;8.710;2022-08-19T19:40:55;5.05;;;4.65;;
40953;SDS011;26686;50.130;8.710;2022-08-19T19:45:56;5.75;;;5.25;;
40953;SDS011;26686;50.130;8.710;2022-08-19T19:50:57;6.68;;;5.60;;
40953;SDS011;26686;50.130;8.710;2022-08-19T19:56:02;5.97;;;4.90;;
40953;SDS011;26686;50.130;8.710;2022-08-19T20:01:04;5.90;;;5.30;;
40953;SDS011;26686;50.130;8.710;2022-08-19T20:06:21;5.55;;;5.05;;
40953;SDS011;26686;50.130;8.710;2022-08-19T20:11:27;5.68;;;5.18;;
40953;SDS011;26686;50.130;8.710;2022-08-19T20:16:31;5.85;;;5.28;;
40953;SDS011;26686;50.130;8.710;2022-08-19T20:21:33;5.30;;;4.90;;
40953;SDS011;26686;50.130;8.710;2022-08-19T20:31:37;5.35;;;4.85;;
40953;SDS011;26686;50.130;8.710;2022-08-19T20:36:57;7.70;;;5.80;;
40953;SDS011;26686;50.130;8.710;2022-08-19T20:41:58;5.35;;;4.85;;
40953;SDS011;26686;50.130;8.710;2022-08-19T20:47:00;5.60;;;5.10;;
40953;SDS011;26686;50.130;8.710;2022-08-19T20:52:04;5.93;;;5.38;;
40953;SDS011;26686;50.130;8.710;2022-08-19T20:57:06;5.30;;;4.78;;
40953;SDS011;26686;50.130;8.710;2022-08-19T21:02:08;5.30;;;4.80;;
40953;SDS011;26686;50.130;8.710;2022-08-19T21:07:11;6.80;;;4.82;;
40953;SDS011;26686;50.130;8.710;2022-08-19T21:12:12;5.43;;;4.45;;
40953;SDS011;26686;50.130;8.710;2022-08-19T21:17:14;4.38;;;3.88;;
40953;SDS011;26686;50.130;8.710;2022-08-19T21:22:15;6.40;;;4.22;;
40953;SDS011;26686;50.130;8.710;2022-08-19T21:27:17;4.47;;;4.07;;
40953;SDS011;26686;50.130;8.710;2022-08-19T21:32:18;4.28;;;3.88;;
40953;SDS011;26686;50.130;8.710;2022-08-19T21:37:19;4.70;;;4.28;;
40953;SDS011;26686;50.130;8.710;2022-08-19T21:42:26;5.15;;;4.60;;
40953;SDS011;26686;50.130;8.710;2022-08-19T21:47:27;5.03;;;4.63;;
40953;SDS011;26686;50.130;8.710;2022-08-19T21:52:28;6.18;;;4.07;;
40953;SDS011;26686;50.130;8.710;2022-08-19T21:57:30;5.28;;;3.83;;
40953;SDS011;26686;50.130;8.710;2022-08-19T22:02:32;4.82;;;3.63;;
40953;SDS011;26686;50.130;8.710;2022-08-19T22:07:33;6.05;;;3.72;;
40953;SDS011;26686;50.130;8.710;2022-08-19T22:12:37;7.25;;;3.63;;
40953;SDS011;26686;50.130;8.710;2022-08-19T22:17:51;8.82;;;3.67;;
40953;SDS011;26686;50.130;8.710;2022-08-19T22:22:55;8.27;;;3.55;;
40953;SDS011;26686;50.130;8.710;2022-08-19T22:27:59;5.88;;;3.45;;
40953;SDS011;26686;50.130;8.710;2022-08-19T22:33:03;3.95;;;3.30;;
40953;SDS011;26686;50.130;8.710;2022-08-19T22:38:07;6.20;;;3.30;;
40953;SDS011;26686;50.130;8.710;2022-08-19T22:48:16;4.32;;;2.95;;
40953;SDS011;26686;50.130;8.710;2022-08-19T22:53:19;3.47;;;2.45;;
40953;SDS011;26686;50.130;8.710;2022-08-19T22:58:21;3.10;;;2.35;;
40953;SDS011;26686;50.130;8.710;2022-08-19T23:03:28;3.10;;;2.85;;
40953;SDS011;26686;50.130;8.710;2022-08-19T23:08:29;3.75;;;3.33;;
40953;SDS011;26686;50.130;8.710;2022-08-19T23:13:31;2.97;;;2.67;;
40953;SDS011;26686;50.130;8.710;2022-08-19T23:18:33;3.35;;;2.78;;
40953;SDS011;26686;50.130;8.710;2022-08-19T23:23:35;5.15;;;2.63;;
40953;SDS011;26686;50.130;8.710;2022-08-19T23:28:39;4.38;;;2.60;;
40953;SDS011;26686;50.130;8.710;2022-08-19T23:33:59;2.97;;;2.30;;
40953;SDS011;26686;50.130;8.710;2022-08-19T23:39:00;3.15;;;2.35;;
40953;SDS011;26686;50.130;8.710;2022-08-19T23:44:02;3.75;;;2.67;;
40953;SDS011;26686;50.130;8.710;2022-08-19T23:49:04;4.45;;;2.55;;
40953;SDS011;26686;50.130;8.710;2022-08-19T23:54:06;4.85;;;3.08;;
40953;SDS011;26686;50.130;8.710;2022-08-19T23:59:07;4.38;;;2.40;;
